Time;durP1;ratioP1;P1;durP2;ratioP2;P2;SDS_P1;SDS_P2;PMS_P1;PMS_P2;Temp;Humidity;BMP_temperature;BMP_pressure;BME280_temperature;BME280_humidity;BME280_pressure;Samples;Min_cycle;Max_cycle;Signal;HPM_P1;HPM_P2
2023/03/20 00:01:08;;;;;;;;;33.25;31.25;;;;;;;;5100237;27;11548;-72
2023/03/20 00:03:34;;;;;;;;;35.75;32.50;;;;;;;;5101555;28;11376;-71
2023/03/20 00:05:59;;;;;;;;;32.75;30.50;;;;;;;;5101381;27;11249;-70
2023/03/20 00:08:24;;;;;;;;;32.75;30.00;;;;;;;;5107742;27;8807;-70
2023/03/20 00:10:49;;;;;;;;;33.00;31.50;;;;;;;;5095185;27;8826;-70
2023/03/20 00:13:21;;;;;;;;;30.75;27.25;;;;;;;;5108256;28;8807;-71
2023/03/20 00:15:47;;;;;;;;;28.50;25.75;;;;;;;;5092190;28;8787;-70
2023/03/20 00:18:14;;;;;;;;;28.75;27.75;;;;;;;;5101883;27;11011;-71
2023/03/20 00:20:39;;;;;;;;;32.50;27.50;;;;;;;;5096251;27;8799;-71
2023/03/20 00:23:04;;;;;;;;;27.75;27.50;;;;;;;;5090711;27;10968;-71
2023/03/20 00:25:31;;;;;;;;;25.75;25.75;;;;;;;;5090647;27;8811;-71
2023/03/20 00:27:56;;;;;;;;;27.25;24.50;;;;;;;;5096777;27;8787;-70
2023/03/20 00:30:24;;;;;;;;;25.75;23.25;;;;;;;;5091917;28;11007;-71
2023/03/20 00:32:51;;;;;;;;;23.25;20.50;;;;;;;;5108561;28;8819;-71
2023/03/20 00:35:23;;;;;;;;;22.50;21.00;;;;;;;;5095903;28;10871;-71
2023/03/20 00:37:49;;;;;;;;;26.75;24.00;;;;;;;;5092915;27;10757;-71
2023/03/20 00:40:14;;;;;;;;;30.25;25.00;;;;;;;;5120202;27;10939;-71
2023/03/20 00:42:40;;;;;;;;;26.50;23.75;;;;;;;;5105450;27;8789;-72
2023/03/20 00:45:08;;;;;;;;;27.25;24.00;;;;;;;;5094847;27;9285;-70
2023/03/20 00:47:36;;;;;;;;;24.00;22.50;;;;;;;;5104402;28;8809;-71
2023/03/20 00:50:01;;;;;;;;;28.25;24.75;;;;;;;;5095580;28;10871;-70
2023/03/20 00:52:27;;;;;;;;;28.75;23.50;;;;;;;;5099267;27;10960;-71
2023/03/20 00:54:52;;;;;;;;;25.25;24.00;;;;;;;;5092167;28;8819;-72
2023/03/20 00:57:29;;;;;;;;;24.75;22.25;;;;;;;;5106710;28;8849;-73
2023/03/20 01:00:13;;;;;;;;;22.50;22.50;;;;;;;;5097905;28;8792;-72
2023/03/20 01:02:38;;;;;;;;;22.25;22.25;;;;;;;;5091153;28;11863;-73
2023/03/20 01:05:05;;;;;;;;;27.50;22.75;;;;;;;;5106607;27;10845;-72
2023/03/20 01:07:30;;;;;;;;;29.00;25.50;;;;;;;;5109519;28;8781;-72
2023/03/20 01:09:55;;;;;;;;;33.75;27.25;;;;;;;;5101746;28;11478;-72
2023/03/20 01:12:21;;;;;;;;;26.00;23.25;;;;;;;;5090900;28;8807;-72
2023/03/20 01:14:50;;;;;;;;;31.00;22.25;;;;;;;;5107955;28;8906;-72
2023/03/20 01:17:17;;;;;;;;;19.00;18.75;;;;;;;;5095272;28;8792;-72
2023/03/20 01:19:42;;;;;;;;;28.75;24.50;;;;;;;;5099418;27;10754;-72
2023/03/20 01:22:08;;;;;;;;;25.50;23.00;;;;;;;;5091388;28;10757;-72
2023/03/20 01:24:33;;;;;;;;;26.75;25.00;;;;;;;;5106122;28;8796;-72
2023/03/20 01:27:02;;;;;;;;;24.00;18.50;;;;;;;;5094497;28;8852;-72
2023/03/20 01:29:27;;;;;;;;;24.75;22.75;;;;;;;;5105923;27;8810;-72
2023/03/20 01:31:53;;;;;;;;;25.25;25.00;;;;;;;;5100698;28;10911;-72
2023/03/20 01:34:19;;;;;;;;;23.75;23.75;;;;;;;;5098156;27;8854;-72
2023/03/20 01:36:49;;;;;;;;;22.75;22.75;;;;;;;;5108072;28;8880;-72
2023/03/20 01:39:15;;;;;;;;;22.75;20.75;;;;;;;;5093365;28;10995;-71
2023/03/20 01:41:41;;;;;;;;;26.50;21.00;;;;;;;;5106934;27;10899;-71
2023/03/20 01:44:36;;;;;;;;;21.50;19.25;;;;;;;;5099931;27;11102;-72
2023/03/20 01:47:05;;;;;;;;;22.75;22.50;;;;;;;;5093797;27;9595;-72
2023/03/20 01:49:49;;;;;;;;;23.00;21.50;;;;;;;;5097142;28;10922;-72
2023/03/20 01:52:14;;;;;;;;;22.75;20.75;;;;;;;;5098686;28;11067;-71
2023/03/20 01:54:39;;;;;;;;;23.25;20.25;;;;;;;;5105183;28;10951;-71
2023/03/20 01:57:15;;;;;;;;;21.50;20.00;;;;;;;;5092774;28;8819;-72
2023/03/20 01:59:44;;;;;;;;;22.25;20.50;;;;;;;;5107139;27;8805;-72
2023/03/20 02:02:12;;;;;;;;;23.00;22.00;;;;;;;;5098561;27;10923;-71
2023/03/20 02:04:41;;;;;;;;;17.00;17.00;;;;;;;;5092563;27;10758;-71
2023/03/20 02:07:08;;;;;;;;;23.50;22.50;;;;;;;;5091702;28;10983;-72
2023/03/20 02:09:34;;;;;;;;;18.00;18.00;;;;;;;;5104293;27;10964;-72
2023/03/20 02:12:00;;;;;;;;;23.50;22.25;;;;;;;;5100629;28;10916;-72
2023/03/20 02:14:25;;;;;;;;;24.25;21.50;;;;;;;;5095411;28;8815;-72
2023/03/20 02:16:50;;;;;;;;;17.50;17.50;;;;;;;;5107049;28;8915;-72
2023/03/20 02:19:22;;;;;;;;;19.25;18.25;;;;;;;;5088601;28;8926;-72
2023/03/20 02:21:50;;;;;;;;;24.75;18.75;;;;;;;;5094265;28;8787;-72
2023/03/20 02:24:15;;;;;;;;;11.25;11.25;;;;;;;;5102879;28;10989;-72
2023/03/20 02:27:03;;;;;;;;;24.75;22.25;;;;;;;;5091951;28;10886;-72
2023/03/20 02:29:31;;;;;;;;;19.50;17.25;;;;;;;;5090410;28;8792;-71
2023/03/20 02:32:02;;;;;;;;;16.00;16.00;;;;;;;;5089371;28;10834;-72
2023/03/20 02:34:28;;;;;;;;;22.75;22.00;;;;;;;;5090311;28;11032;-72
2023/03/20 02:37:12;;;;;;;;;26.50;23.75;;;;;;;;5091098;28;10818;-71
2023/03/20 02:39:50;;;;;;;;;22.50;21.25;;;;;;;;5090540;28;10914;-72
2023/03/20 02:42:22;;;;;;;;;23.00;20.75;;;;;;;;5097562;27;11030;-72
2023/03/20 02:45:12;;;;;;;;;21.50;20.00;;;;;;;;5110817;27;10913;-72
2023/03/20 02:48:00;;;;;;;;;19.50;16.75;;;;;;;;5110946;27;10969;-72
2023/03/20 02:50:52;;;;;;;;;22.25;20.75;;;;;;;;5100017;28;10956;-72
2023/03/20 02:53:36;;;;;;;;;20.25;18.25;;;;;;;;5106489;28;10730;-72
2023/03/20 02:56:16;;;;;;;;;27.75;21.00;;;;;;;;5109656;28;10745;-72
2023/03/20 02:58:43;;;;;;;;;22.50;21.50;;;;;;;;5111233;27;10906;-72
2023/03/20 03:01:28;;;;;;;;;20.25;20.25;;;;;;;;5110872;27;11640;-72
2023/03/20 03:04:07;;;;;;;;;24.50;23.75;;;;;;;;5096019;28;10914;-72
2023/03/20 03:06:35;;;;;;;;;22.00;21.75;;;;;;;;5110452;27;10947;-72
2023/03/20 03:09:07;;;;;;;;;19.50;18.25;;;;;;;;5110399;27;10963;-72
2023/03/20 03:11:35;;;;;;;;;18.25;16.00;;;;;;;;5110378;27;11093;-72
2023/03/20 03:14:00;;;;;;;;;23.25;23.00;;;;;;;;5109437;27;10997;-72
2023/03/20 03:16:31;;;;;;;;;19.00;18.50;;;;;;;;5110587;27;10736;-72
2023/03/20 03:19:03;;;;;;;;;22.50;20.00;;;;;;;;5111629;27;8773;-72
2023/03/20 03:21:30;;;;;;;;;31.25;29.25;;;;;;;;5112965;28;10893;-71
2023/03/20 03:23:55;;;;;;;;;31.75;31.50;;;;;;;;5113527;27;11404;-72
2023/03/20 03:26:24;;;;;;;;;20.00;17.00;;;;;;;;5114264;27;11505;-72
2023/03/20 03:28:51;;;;;;;;;24.25;21.25;;;;;;;;5113991;27;8753;-72
2023/03/20 03:31:17;;;;;;;;;27.25;26.00;;;;;;;;5113967;27;10933;-72
2023/03/20 03:33:46;;;;;;;;;24.50;22.00;;;;;;;;5113672;27;10973;-72
2023/03/20 03:36:16;;;;;;;;;26.00;23.75;;;;;;;;5113759;27;11008;-72
2023/03/20 03:39:00;;;;;;;;;23.75;22.00;;;;;;;;5113598;27;11063;-73
2023/03/20 03:41:28;;;;;;;;;16.75;16.75;;;;;;;;5113786;27;10810;-72
2023/03/20 03:44:10;;;;;;;;;19.00;17.25;;;;;;;;5113876;28;10964;-72
2023/03/20 03:46:45;;;;;;;;;21.75;19.50;;;;;;;;5113887;27;10825;-72
2023/03/20 03:49:14;;;;;;;;;23.00;19.50;;;;;;;;5113621;27;10900;-72
2023/03/20 03:51:41;;;;;;;;;18.00;17.50;;;;;;;;5113222;27;10940;-72
2023/03/20 03:54:33;;;;;;;;;19.50;19.50;;;;;;;;5113410;27;10750;-72
2023/03/20 03:57:01;;;;;;;;;21.25;19.25;;;;;;;;5109412;28;10818;-72
2023/03/20 03:59:31;;;;;;;;;20.75;20.25;;;;;;;;5113411;27;10799;-73
2023/03/20 04:01:57;;;;;;;;;24.25;20.75;;;;;;;;5113228;27;11010;-72
2023/03/20 04:04:24;;;;;;;;;26.00;22.00;;;;;;;;5113670;27;11008;-72
2023/03/20 04:06:49;;;;;;;;;19.25;17.00;;;;;;;;5113125;27;10797;-72
2023/03/20 04:09:14;;;;;;;;;19.50;18.25;;;;;;;;5113459;28;10728;-72
2023/03/20 04:11:39;;;;;;;;;21.00;17.75;;;;;;;;5113333;28;8804;-72
2023/03/20 04:14:05;;;;;;;;;21.75;20.50;;;;;;;;5113321;28;8848;-72
2023/03/20 04:16:30;;;;;;;;;20.00;16.75;;;;;;;;5113314;27;8781;-72
2023/03/20 04:18:56;;;;;;;;;18.50;16.50;;;;;;;;5113217;27;8809;-72
2023/03/20 04:21:21;;;;;;;;;20.50;19.25;;;;;;;;5113209;27;8809;-72
2023/03/20 04:23:46;;;;;;;;;21.00;19.50;;;;;;;;5111937;28;8809;-72
2023/03/20 04:26:12;;;;;;;;;17.50;15.00;;;;;;;;5112993;28;8784;-72
2023/03/20 04:28:37;;;;;;;;;21.00;19.50;;;;;;;;5113149;27;8805;-72
2023/03/20 04:31:02;;;;;;;;;23.75;19.00;;;;;;;;5111854;28;8804;-72
2023/03/20 04:33:28;;;;;;;;;16.50;16.25;;;;;;;;5112622;28;8943;-72
2023/03/20 04:35:53;;;;;;;;;19.00;16.25;;;;;;;;5112934;27;8793;-72
2023/03/20 04:38:19;;;;;;;;;15.75;15.25;;;;;;;;5112948;27;9528;-72
2023/03/20 04:40:45;;;;;;;;;19.00;17.25;;;;;;;;5112881;27;8809;-72
2023/03/20 04:43:11;;;;;;;;;23.00;20.50;;;;;;;;5112769;27;8781;-72
2023/03/20 04:45:36;;;;;;;;;16.00;14.75;;;;;;;;5112789;27;8792;-72
2023/03/20 04:48:01;;;;;;;;;19.75;16.50;;;;;;;;5112812;28;8781;-72
2023/03/20 04:50:26;;;;;;;;;22.50;19.00;;;;;;;;5111343;28;8797;-73
2023/03/20 04:52:52;;;;;;;;;15.00;14.50;;;;;;;;5112842;27;8891;-72
2023/03/20 04:55:17;;;;;;;;;17.00;14.50;;;;;;;;5112390;28;8939;-72
2023/03/20 04:57:42;;;;;;;;;15.50;15.50;;;;;;;;5112835;28;8826;-72
2023/03/20 05:00:08;;;;;;;;;17.50;16.50;;;;;;;;5112582;28;8785;-72
2023/03/20 05:02:34;;;;;;;;;15.00;15.00;;;;;;;;5112672;27;8781;-72
2023/03/20 05:04:59;;;;;;;;;21.75;21.75;;;;;;;;5111934;27;10797;-72
2023/03/20 05:07:24;;;;;;;;;16.25;15.00;;;;;;;;5112461;28;8827;-72
2023/03/20 05:09:49;;;;;;;;;18.00;16.75;;;;;;;;5111252;28;8825;-72
2023/03/20 05:12:15;;;;;;;;;21.50;17.00;;;;;;;;5112590;28;9622;-72
2023/03/20 05:14:40;;;;;;;;;19.25;18.00;;;;;;;;5112412;27;8820;-72
2023/03/20 05:17:05;;;;;;;;;17.25;16.75;;;;;;;;5112368;27;8847;-72
2023/03/20 05:19:31;;;;;;;;;18.00;15.75;;;;;;;;5112338;28;8836;-72
2023/03/20 05:21:56;;;;;;;;;19.25;19.25;;;;;;;;5112427;28;8813;-72
2023/03/20 05:24:21;;;;;;;;;20.00;18.25;;;;;;;;5112554;28;8809;-72
2023/03/20 05:26:46;;;;;;;;;19.25;16.50;;;;;;;;5112345;28;8825;-72
2023/03/20 05:29:12;;;;;;;;;17.50;16.00;;;;;;;;5113187;28;8811;-72
2023/03/20 05:31:37;;;;;;;;;18.00;17.00;;;;;;;;5113409;28;8789;-72
2023/03/20 05:34:02;;;;;;;;;16.50;14.75;;;;;;;;5110761;28;8833;-72
2023/03/20 05:36:27;;;;;;;;;15.00;15.00;;;;;;;;5112169;28;8781;-72
2023/03/20 05:38:53;;;;;;;;;21.00;19.25;;;;;;;;5111325;28;8795;-72
2023/03/20 05:41:18;;;;;;;;;15.50;12.50;;;;;;;;5111582;28;8789;-72
2023/03/20 05:43:43;;;;;;;;;17.75;15.50;;;;;;;;5111914;28;8815;-73
2023/03/20 05:46:09;;;;;;;;;13.75;11.25;;;;;;;;5111882;28;9544;-72
2023/03/20 05:48:34;;;;;;;;;17.25;15.25;;;;;;;;5110264;28;8804;-72
2023/03/20 05:50:59;;;;;;;;;18.50;16.25;;;;;;;;5111825;27;8801;-72
2023/03/20 05:53:25;;;;;;;;;23.50;16.25;;;;;;;;5111722;27;8915;-72
2023/03/20 05:55:50;;;;;;;;;18.25;16.50;;;;;;;;5111601;28;8908;-72
2023/03/20 05:58:15;;;;;;;;;15.00;15.00;;;;;;;;5110365;28;9614;-72
2023/03/20 06:00:40;;;;;;;;;14.50;13.50;;;;;;;;5111568;28;8785;-72
2023/03/20 06:03:06;;;;;;;;;12.75;12.75;;;;;;;;5111503;28;8885;-73
2023/03/20 06:05:31;;;;;;;;;10.00;10.00;;;;;;;;5111699;28;8862;-72
2023/03/20 06:07:57;;;;;;;;;20.00;15.25;;;;;;;;5111586;27;8781;-72
2023/03/20 06:10:22;;;;;;;;;15.50;15.50;;;;;;;;5111614;28;8792;-72
2023/03/20 06:12:47;;;;;;;;;14.00;14.00;;;;;;;;5109997;28;8816;-72
2023/03/20 06:15:13;;;;;;;;;10.25;10.00;;;;;;;;5111395;27;8819;-72
2023/03/20 06:17:38;;;;;;;;;10.25;9.00;;;;;;;;5111431;28;8812;-72
2023/03/20 06:20:03;;;;;;;;;10.25;9.00;;;;;;;;5111480;28;9690;-72
2023/03/20 06:22:28;;;;;;;;;4.25;3.00;;;;;;;;5111359;27;8799;-73
2023/03/20 06:24:56;;;;;;;;;8.00;8.00;;;;;;;;5111676;28;8826;-72
2023/03/20 06:27:21;;;;;;;;;3.00;2.75;;;;;;;;5111050;27;8787;-73
2023/03/20 06:29:46;;;;;;;;;3.75;3.25;;;;;;;;5111362;28;10164;-73
2023/03/20 06:32:13;;;;;;;;;4.75;3.75;;;;;;;;5086360;28;8896;-72
2023/03/20 06:34:38;;;;;;;;;2.75;2.00;;;;;;;;5105673;28;8805;-72
2023/03/20 06:37:04;;;;;;;;;3.00;3.00;;;;;;;;5111468;28;10058;-72
2023/03/20 06:39:29;;;;;;;;;4.50;3.25;;;;;;;;5111059;27;8883;-72
2023/03/20 06:41:54;;;;;;;;;4.25;2.25;;;;;;;;5105580;28;8830;-72
2023/03/20 06:44:20;;;;;;;;;8.75;4.75;;;;;;;;5108139;28;9614;-72
2023/03/20 06:46:45;;;;;;;;;4.50;2.25;;;;;;;;5110225;27;8812;-73
2023/03/20 06:49:11;;;;;;;;;4.25;2.75;;;;;;;;5110977;27;8816;-72
2023/03/20 06:51:36;;;;;;;;;4.25;3.00;;;;;;;;5111099;28;8808;-72
2023/03/20 06:54:01;;;;;;;;;4.50;3.50;;;;;;;;5111872;28;8808;-72
2023/03/20 06:56:26;;;;;;;;;4.50;4.50;;;;;;;;5114549;27;8788;-72
2023/03/20 06:58:51;;;;;;;;;5.00;4.00;;;;;;;;5113242;28;8955;-72
2023/03/20 07:01:19;;;;;;;;;5.25;4.00;;;;;;;;5114105;28;9632;-72
2023/03/20 07:03:44;;;;;;;;;7.50;5.50;;;;;;;;5114198;27;8841;-72
2023/03/20 07:06:10;;;;;;;;;4.25;3.75;;;;;;;;5114042;27;10207;-74
2023/03/20 07:08:36;;;;;;;;;3.25;3.25;;;;;;;;5114300;27;9657;-74
2023/03/20 07:11:03;;;;;;;;;5.25;4.25;;;;;;;;5112693;28;10390;-76
2023/03/20 07:13:28;;;;;;;;;3.00;3.00;;;;;;;;5114069;27;8761;-73
2023/03/20 07:15:53;;;;;;;;;3.50;3.50;;;;;;;;5113858;27;10143;-72
2023/03/20 07:18:19;;;;;;;;;1.00;1.00;;;;;;;;5114158;27;8909;-73
2023/03/20 07:20:45;;;;;;;;;7.50;7.50;;;;;;;;5114097;27;8874;-73
2023/03/20 07:23:10;;;;;;;;;2.00;2.00;;;;;;;;5099661;27;8799;-73
2023/03/20 07:25:36;;;;;;;;;4.00;2.50;;;;;;;;5093833;28;8803;-73
2023/03/20 07:28:01;;;;;;;;;4.25;4.25;;;;;;;;5093427;28;8787;-73
2023/03/20 07:30:26;;;;;;;;;2.00;2.00;;;;;;;;5093363;28;9578;-73
2023/03/20 07:32:51;;;;;;;;;2.25;2.25;;;;;;;;5093219;28;8830;-72
2023/03/20 07:35:17;;;;;;;;;4.75;3.00;;;;;;;;5093296;28;8915;-73
2023/03/20 07:37:42;;;;;;;;;3.00;2.75;;;;;;;;5093662;28;8815;-73
2023/03/20 07:40:08;;;;;;;;;2.50;2.25;;;;;;;;5093427;28;8823;-72
2023/03/20 07:42:33;;;;;;;;;3.25;2.25;;;;;;;;5100975;27;8805;-74
2023/03/20 07:44:59;;;;;;;;;4.00;4.00;;;;;;;;5092266;28;8925;-73
2023/03/20 07:47:24;;;;;;;;;2.00;2.00;;;;;;;;5092739;28;8803;-72
2023/03/20 07:49:49;;;;;;;;;3.00;3.00;;;;;;;;5093294;28;8779;-73
2023/03/20 07:52:16;;;;;;;;;7.25;5.00;;;;;;;;5092436;28;8824;-73
2023/03/20 07:54:41;;;;;;;;;5.50;4.00;;;;;;;;5092493;28;8876;-72
2023/03/20 07:57:06;;;;;;;;;4.50;3.75;;;;;;;;5092459;28;9986;-72
2023/03/20 07:59:31;;;;;;;;;2.50;2.50;;;;;;;;5092276;28;8799;-73
2023/03/20 08:01:56;;;;;;;;;3.00;3.00;;;;;;;;5092652;28;8783;-73
2023/03/20 08:04:22;;;;;;;;;4.75;3.00;;;;;;;;5092886;28;8838;-73
2023/03/20 08:06:48;;;;;;;;;3.25;3.00;;;;;;;;5092861;28;8909;-73
2023/03/20 08:09:13;;;;;;;;;2.25;2.25;;;;;;;;5092993;28;8807;-73
2023/03/20 08:11:38;;;;;;;;;5.75;5.00;;;;;;;;5091453;28;8865;-74
2023/03/20 08:14:03;;;;;;;;;2.75;2.75;;;;;;;;5092622;28;8823;-73
2023/03/20 08:16:29;;;;;;;;;5.75;5.00;;;;;;;;5092820;28;8803;-74
2023/03/20 08:18:59;;;;;;;;;5.25;4.75;;;;;;;;5093139;28;8806;-73
2023/03/20 08:21:25;;;;;;;;;3.50;3.50;;;;;;;;5092890;28;8759;-72
2023/03/20 08:23:51;;;;;;;;;5.50;4.50;;;;;;;;5092670;28;9865;-72
2023/03/20 08:26:16;;;;;;;;;4.00;4.00;;;;;;;;5091421;28;9901;-72
2023/03/20 08:28:41;;;;;;;;;5.00;5.00;;;;;;;;5092612;28;8865;-73
2023/03/20 08:31:07;;;;;;;;;4.75;4.50;;;;;;;;5092641;28;8971;-72
2023/03/20 08:33:32;;;;;;;;;5.00;3.50;;;;;;;;5096361;27;8831;-73
2023/03/20 08:35:58;;;;;;;;;4.00;4.00;;;;;;;;5110304;27;11123;-73
2023/03/20 08:38:24;;;;;;;;;6.50;5.00;;;;;;;;5110177;27;8804;-73
2023/03/20 08:40:49;;;;;;;;;4.75;4.75;;;;;;;;5118461;27;8827;-72
2023/03/20 08:43:14;;;;;;;;;5.75;4.00;;;;;;;;5110790;27;8811;-72
2023/03/20 08:45:39;;;;;;;;;4.00;4.00;;;;;;;;5122650;27;9584;-73
2023/03/20 08:48:05;;;;;;;;;2.00;2.00;;;;;;;;5117657;27;8864;-73
2023/03/20 08:50:31;;;;;;;;;3.50;3.50;;;;;;;;5112806;28;8792;-73
2023/03/20 08:52:56;;;;;;;;;3.50;2.00;;;;;;;;5113662;27;8839;-73
2023/03/20 08:55:21;;;;;;;;;2.00;2.00;;;;;;;;5113141;28;8793;-74
2023/03/20 08:57:46;;;;;;;;;3.00;3.00;;;;;;;;5112414;28;8805;-73
2023/03/20 09:00:13;;;;;;;;;4.50;3.00;;;;;;;;5112721;28;8785;-72
2023/03/20 09:02:38;;;;;;;;;2.50;2.50;;;;;;;;5112584;27;8794;-72
2023/03/20 09:05:04;;;;;;;;;5.00;5.00;;;;;;;;5112707;27;10469;-73
2023/03/20 09:07:29;;;;;;;;;3.00;3.00;;;;;;;;5112511;28;8915;-73
2023/03/20 09:09:54;;;;;;;;;6.75;4.00;;;;;;;;5111225;28;8817;-73
2023/03/20 09:12:19;;;;;;;;;4.00;3.50;;;;;;;;5112330;28;9652;-72
2023/03/20 09:14:45;;;;;;;;;3.50;3.50;;;;;;;;5112421;28;8836;-73
2023/03/20 09:17:10;;;;;;;;;3.25;3.25;;;;;;;;5111711;28;8797;-73
2023/03/20 09:19:38;;;;;;;;;2.00;2.00;;;;;;;;5110959;28;8804;-73
2023/03/20 09:22:03;;;;;;;;;3.50;2.50;;;;;;;;5112328;27;8762;-73
2023/03/20 09:24:30;;;;;;;;;4.50;3.00;;;;;;;;5111764;28;9915;-72
2023/03/20 09:26:55;;;;;;;;;3.00;3.00;;;;;;;;5114007;27;8797;-73
2023/03/20 09:29:20;;;;;;;;;4.75;3.75;;;;;;;;5112191;28;9887;-72
2023/03/20 09:31:45;;;;;;;;;2.25;1.50;;;;;;;;5111121;28;8805;-72
2023/03/20 09:34:11;;;;;;;;;3.00;3.00;;;;;;;;5112036;28;8825;-72
2023/03/20 09:36:36;;;;;;;;;3.50;3.25;;;;;;;;5111014;28;8801;-74
2023/03/20 09:39:01;;;;;;;;;6.25;3.00;;;;;;;;5112414;28;8781;-74
2023/03/20 09:41:27;;;;;;;;;4.75;2.00;;;;;;;;5111834;27;8815;-74
2023/03/20 09:43:59;;;;;;;;;3.75;2.00;;;;;;;;5111888;27;8785;-74
2023/03/20 09:46:48;;;;;;;;;1.75;1.75;;;;;;;;5112165;27;8812;-74
2023/03/20 09:49:22;;;;;;;;;3.00;3.00;;;;;;;;5099189;28;9628;-73
2023/03/20 09:51:51;;;;;;;;;3.50;3.50;;;;;;;;5112105;28;9557;-74
2023/03/20 09:54:27;;;;;;;;;4.75;2.00;;;;;;;;5111228;27;9742;-73
2023/03/20 09:56:54;;;;;;;;;6.33;3.67;;;;;;;;5111786;27;9600;-74
2023/03/20 09:59:20;;;;;;;;;3.75;3.75;;;;;;;;5110931;27;9497;-72
2023/03/20 10:01:57;;;;;;;;;2.00;2.00;;;;;;;;5111737;27;9543;-73
2023/03/20 10:04:27;;;;;;;;;2.33;1.00;;;;;;;;5111886;27;11445;-74
2023/03/20 10:06:52;;;;;;;;;1.25;1.25;;;;;;;;5110251;28;9668;-74
2023/03/20 10:09:23;;;;;;;;;1.00;1.00;;;;;;;;5111191;27;9534;-74
2023/03/20 10:11:57;;;;;;;;;1.75;1.25;;;;;;;;5111631;27;8777;-74
2023/03/20 10:14:31;;;;;;;;;2.00;2.00;;;;;;;;5110991;28;9555;-73
2023/03/20 10:17:15;;;;;;;;;2.25;1.75;;;;;;;;5111464;28;9709;-74
2023/03/20 10:19:44;;;;;;;;;1.50;1.50;;;;;;;;5111291;28;9592;-73
2023/03/20 10:22:19;;;;;;;;;4.25;3.25;;;;;;;;5111515;27;9614;-74
2023/03/20 10:24:51;;;;;;;;;1.00;1.00;;;;;;;;5111273;27;9731;-73
2023/03/20 10:27:21;;;;;;;;;2.00;2.00;;;;;;;;5111511;27;9707;-73
2023/03/20 10:30:06;;;;;;;;;1.50;0.50;;;;;;;;5114727;27;9546;-74
2023/03/20 10:32:43;;;;;;;;;3.00;3.00;;;;;;;;5116087;27;9645;-73
2023/03/20 10:35:11;;;;;;;;;1.67;1.00;;;;;;;;5112901;27;9652;-73
2023/03/20 10:37:45;;;;;;;;;2.00;1.00;;;;;;;;5114464;28;9517;-74
2023/03/20 10:40:25;;;;;;;;;4.00;3.00;;;;;;;;5114932;27;9645;-74
2023/03/20 10:42:52;;;;;;;;;3.00;2.00;;;;;;;;5114868;27;9732;-73
2023/03/20 10:45:27;;;;;;;;;3.00;3.00;;;;;;;;5114754;27;9538;-73
2023/03/20 10:47:53;;;;;;;;;1.00;1.00;;;;;;;;5114853;28;10311;-74
2023/03/20 10:50:20;;;;;;;;;1.00;1.00;;;;;;;;5114626;27;9550;-74
2023/03/20 10:52:47;;;;;;;;;0.00;0.00;;;;;;;;5114353;27;9594;-74
2023/03/20 10:55:24;;;;;;;;;3.00;3.00;;;;;;;;5113268;28;10275;-74
2023/03/20 10:58:02;;;;;;;;;4.33;2.00;;;;;;;;5111683;28;9531;-74
2023/03/20 11:00:27;;;;;;;;;3.75;2.75;;;;;;;;5092888;28;9492;-73
2023/03/20 11:02:53;;;;;;;;;3.00;3.00;;;;;;;;5093741;28;9621;-73
2023/03/20 11:05:18;;;;;;;;;3.00;3.00;;;;;;;;5094157;28;8807;-73
2023/03/20 11:07:43;;;;;;;;;2.00;1.67;;;;;;;;5093901;28;8817;-74
2023/03/20 11:10:11;;;;;;;;;5.50;4.00;;;;;;;;5093835;28;8834;-73
2023/03/20 11:12:40;;;;;;;;;0.50;0.00;;;;;;;;5094230;28;8780;-74
2023/03/20 11:15:23;;;;;;;;;2.00;2.00;;;;;;;;5092699;28;9511;-74
2023/03/20 11:17:55;;;;;;;;;4.33;1.67;;;;;;;;5094175;28;9730;-73
2023/03/20 11:20:21;;;;;;;;;2.00;2.00;;;;;;;;5093697;28;9458;-74
2023/03/20 11:22:50;;;;;;;;;1.00;1.00;;;;;;;;5093385;28;9426;-73
2023/03/20 11:25:24;;;;;;;;;1.33;1.00;;;;;;;;5093331;28;8779;-73
2023/03/20 11:27:49;;;;;;;;;3.00;2.00;;;;;;;;5093360;28;9399;-73
2023/03/20 11:30:17;;;;;;;;;2.75;2.75;;;;;;;;5093572;28;9437;-73
2023/03/20 11:32:47;;;;;;;;;3.00;3.00;;;;;;;;5093683;28;8779;-74
2023/03/20 11:35:24;;;;;;;;;2.00;2.00;;;;;;;;5097223;28;9596;-74
2023/03/20 11:37:50;;;;;;;;;2.75;2.75;;;;;;;;5098744;28;9553;-74
2023/03/20 11:40:16;;;;;;;;;2.00;2.00;;;;;;;;5097827;28;9639;-74
2023/03/20 11:42:51;;;;;;;;;8.00;5.25;;;;;;;;5107467;27;9570;-73
2023/03/20 11:45:16;;;;;;;;;2.00;2.00;;;;;;;;5113615;27;9624;-73
2023/03/20 11:47:44;;;;;;;;;2.00;2.00;;;;;;;;5113833;27;9551;-73
2023/03/20 11:50:25;;;;;;;;;2.50;2.50;;;;;;;;5113485;28;8773;-73
2023/03/20 11:52:50;;;;;;;;;5.00;3.75;;;;;;;;5113594;27;10549;-73
2023/03/20 11:55:32;;;;;;;;;3.00;3.00;;;;;;;;5113807;27;9674;-73
2023/03/20 11:57:58;;;;;;;;;3.25;2.50;;;;;;;;5109970;27;8781;-74
2023/03/20 12:00:28;;;;;;;;;2.75;2.75;;;;;;;;5112830;27;9545;-73
2023/03/20 12:02:53;;;;;;;;;2.75;2.75;;;;;;;;5112915;27;9598;-73
2023/03/20 12:05:28;;;;;;;;;3.75;2.50;;;;;;;;5112771;28;9714;-73
2023/03/20 12:07:56;;;;;;;;;3.50;3.25;;;;;;;;5112860;27;8765;-73
2023/03/20 12:10:23;;;;;;;;;5.00;3.25;;;;;;;;5113606;27;9610;-74
2023/03/20 12:13:00;;;;;;;;;3.75;3.25;;;;;;;;5113618;27;9678;-74
2023/03/20 12:15:33;;;;;;;;;4.75;3.75;;;;;;;;5113814;27;9883;-74
2023/03/20 12:18:04;;;;;;;;;2.25;2.25;;;;;;;;5114285;27;9613;-73
2023/03/20 12:20:33;;;;;;;;;4.00;4.00;;;;;;;;5114118;27;9827;-74
2023/03/20 12:23:01;;;;;;;;;4.25;4.25;;;;;;;;5114157;27;9769;-74
2023/03/20 12:25:30;;;;;;;;;2.00;2.00;;;;;;;;5114267;28;9556;-74
2023/03/20 12:27:58;;;;;;;;;3.50;2.75;;;;;;;;5113982;27;9458;-75
2023/03/20 12:30:44;;;;;;;;;6.25;4.00;;;;;;;;5113135;28;9791;-74
2023/03/20 12:33:15;;;;;;;;;3.00;3.00;;;;;;;;5113195;28;9692;-74
2023/03/20 12:35:44;;;;;;;;;3.50;3.00;;;;;;;;5112635;27;9666;-73
2023/03/20 12:38:29;;;;;;;;;6.00;3.50;;;;;;;;5113273;27;9610;-74
2023/03/20 12:41:00;;;;;;;;;4.75;3.25;;;;;;;;5113004;28;9682;-74
2023/03/20 12:43:30;;;;;;;;;3.25;2.50;;;;;;;;5112622;27;9501;-74
2023/03/20 12:45:55;;;;;;;;;4.50;3.75;;;;;;;;5112843;27;9497;-74
2023/03/20 12:48:21;;;;;;;;;5.75;3.75;;;;;;;;5102899;28;9648;-74
2023/03/20 12:51:06;;;;;;;;;2.25;2.00;;;;;;;;5097826;28;8892;-74
2023/03/20 12:53:50;;;;;;;;;4.75;3.00;;;;;;;;5080835;28;10320;-74
2023/03/20 12:56:25;;;;;;;;;2.50;2.50;;;;;;;;5091954;28;9628;-74
2023/03/20 12:59:05;;;;;;;;;5.00;3.25;;;;;;;;5091940;28;9560;-74
2023/03/20 13:01:31;;;;;;;;;4.00;3.00;;;;;;;;5090898;28;9543;-74
2023/03/20 13:04:03;;;;;;;;;3.50;2.00;;;;;;;;5091842;28;9788;-74
2023/03/20 13:06:28;;;;;;;;;2.75;1.75;;;;;;;;5090390;28;9477;-74
2023/03/20 13:09:05;;;;;;;;;3.00;2.33;;;;;;;;5090833;28;9698;-74
2023/03/20 13:11:43;;;;;;;;;1.00;1.00;;;;;;;;5092146;28;9585;-74
2023/03/20 13:14:15;;;;;;;;;2.75;2.75;;;;;;;;5091866;28;9651;-74
2023/03/20 13:17:01;;;;;;;;;1.25;1.25;;;;;;;;5091344;28;9644;-73
2023/03/20 13:19:42;;;;;;;;;3.00;3.00;;;;;;;;5090963;28;9558;-74
2023/03/20 13:22:15;;;;;;;;;3.00;3.00;;;;;;;;5091474;28;9310;-73
2023/03/20 13:24:45;;;;;;;;;2.00;2.00;;;;;;;;5091602;28;9440;-74
2023/03/20 13:27:10;;;;;;;;;4.00;2.75;;;;;;;;5091771;28;9336;-73
2023/03/20 13:29:54;;;;;;;;;4.00;3.50;;;;;;;;5091569;28;9559;-73
2023/03/20 13:32:28;;;;;;;;;4.00;4.00;;;;;;;;5091416;28;8776;-73
2023/03/20 13:34:54;;;;;;;;;4.50;1.75;;;;;;;;5091449;28;9745;-73
2023/03/20 13:37:34;;;;;;;;;2.25;2.00;;;;;;;;5091612;28;9510;-73
2023/03/20 13:40:18;;;;;;;;;5.50;3.25;;;;;;;;5091469;28;9546;-73
2023/03/20 13:42:49;;;;;;;;;3.00;3.00;;;;;;;;5103449;27;9552;-73
2023/03/20 13:45:35;;;;;;;;;3.00;3.00;;;;;;;;5111783;27;10373;-74
2023/03/20 13:48:29;;;;;;;;;3.00;3.00;;;;;;;;5111568;27;9557;-74
2023/03/20 13:51:13;;;;;;;;;4.00;2.00;;;;;;;;5094099;28;10407;-73
2023/03/20 13:53:54;;;;;;;;;2.00;2.00;;;;;;;;5112274;27;9634;-78
2023/03/20 13:56:28;;;;;;;;;2.50;2.25;;;;;;;;5112193;28;9609;-75
2023/03/20 13:59:02;;;;;;;;;3.00;3.00;;;;;;;;5111804;28;9541;-76
2023/03/20 14:01:39;;;;;;;;;4.00;2.00;;;;;;;;5111456;27;9567;-78
2023/03/20 14:04:11;;;;;;;;;3.00;3.00;;;;;;;;5111591;28;9459;-76
2023/03/20 14:06:42;;;;;;;;;5.67;3.00;;;;;;;;5111655;27;9469;-76
2023/03/20 14:09:26;;;;;;;;;3.00;2.00;;;;;;;;5111794;27;9485;-76
2023/03/20 14:11:55;;;;;;;;;3.25;2.25;;;;;;;;5111600;28;9386;-76
2023/03/20 14:14:26;;;;;;;;;2.67;2.67;;;;;;;;5111530;27;9472;-76
2023/03/20 14:17:01;;;;;;;;;3.67;2.33;;;;;;;;5109757;28;9556;-74
2023/03/20 14:19:27;;;;;;;;;6.00;4.00;;;;;;;;5111631;28;9592;-74
2023/03/20 14:21:53;;;;;;;;;2.25;1.25;;;;;;;;5111265;27;9537;-75
2023/03/20 14:24:19;;;;;;;;;3.00;3.00;;;;;;;;5111654;27;9537;-73
2023/03/20 14:26:54;;;;;;;;;1.00;1.00;;;;;;;;5110249;28;9553;-74
2023/03/20 14:29:29;;;;;;;;;2.75;2.75;;;;;;;;5111162;27;10127;-75
2023/03/20 14:32:03;;;;;;;;;3.75;3.00;;;;;;;;5111035;27;9697;-75
2023/03/20 14:34:42;;;;;;;;;3.50;3.50;;;;;;;;5110865;28;10420;-75
2023/03/20 14:37:25;;;;;;;;;5.00;3.50;;;;;;;;5111426;27;9752;-75
2023/03/20 14:40:09;;;;;;;;;6.00;4.50;;;;;;;;5111229;27;9792;-75
2023/03/20 14:42:34;;;;;;;;;5.00;2.75;;;;;;;;5109525;27;9878;-77
2023/03/20 14:45:12;;;;;;;;;3.75;3.75;;;;;;;;5111327;27;9815;-77
2023/03/20 14:47:56;;;;;;;;;8.75;3.50;;;;;;;;5111191;28;8818;-74
2023/03/20 14:50:30;;;;;;;;;4.75;3.00;;;;;;;;5110919;28;9704;-73
2023/03/20 14:53:12;;;;;;;;;3.50;2.00;;;;;;;;5111025;27;10483;-74